SMRA30 UAOL 210900
AAXX 21091

=
30054 41598 52101 11045 21088 39990 40233 54000 70282 82941=
30074 42/// /3201 11056 21416 30016 40228 54001=
30089 42699 23201 11083 21179 39995 40224 56008 82500=
30127 41499 42902 11039 21111 39704 40257 52008 70181 84900=
30157 41698 42702 11049 21089 39942 40229 53004 70281 82901=
30173 42599 50502 11054 21174 39963 40218 57006 85900=
30198 42999 00000 11099 21201 39692 40229 57005=
30230 41597 80302 11028 21093 39917 40245 52010 78582 85901=
30252 41699 70000 11028 21081 39910 40224 55001 70182 83901=
30309 41594 83202 11033 21070 39767 40293 52005 78682 85901=
30323 41598 32802 11029 21113 39847 40260 52011 70181 83900=
30337 41599 70303 11015 21097 39793 40240 55003 70282 82901=
30372 42799 53204 11067 21207 39322 40203 55001 83941=
30385 42599 70301 11073 21171 39654 40213 54000 85901=
30393 42599 33404 11146 21227 39139 40226 54000 83900=
30405 41598 73101 11022 21062 39769 40301 52001 78582 86930=
30433 41698 80000 11068 21094 39645 40250 53001 71582 8597/=
30493 42999 20102 11131 21183 39143 40224 57001 82010=
30499 42699 53602 11078 21232 39528 40195 57006 82101=
30504 41598 72803 11015 21102 39650 40300 57007 70182 84302=
30521 41597 82906 11030 21080 39737 40264 55004 78582 87901 333 91010 91112=
30526 41598 82804 11045 21110 39442 40249 57008 71522 889//=
30554 42698 83103 11053 21173 39107 40205 57003 84901=
30603 41698 83104 11018 21083 39724 40297 56009 70282 85531 333 91110=
30612 41597 83005 11022 21074 39755 40291 56007 78582 8597/ 333 91111=
30622 41598 83103 11028 21085 39611 40261 57009 72682 85933=
30627 41996 82904 11055 21094 39330 40272 57007 77372 8802/=
30635 42599 82403 11038 21075 39672 40250 57005 8295/=
30636 41597 82802 11040 21079 39632 40244 54000 78582 8693/=
30650 42599 83303 11047 21160 39086 40202 56008 86901=
30664 42699 83303 11050 21196 39207 40199 57006 84407 333 91110=
30673 42699 70403 11040 21159 39413 40184 57007 87300=
30683 41599 53003 11042 21192 39533 40182 57005 71422 85900=
30686 42599 72702 11037 21159 39815 40186 57010 82901=
30692 42599 10204 11053 21202 39686 40186 57005 81100 333 91110=
30695 42599 43603 11032 21188 39849 40185 57009 84900=
30703 42599 82902 11003 21100 39620 40292 56011 83902=
30710 41597 83203 11023 21085 39709 40297 56008 78582 889// 333 91111=
30731 42499 82304 11043 21082 39646 40259 57009 8272/ 333 91111=
30741 42/// /3203 11105 21132 38694 48457 57004 333 91112=
30745 41598 83007 11070 21125 39064 40227 57010 70282 84902 333 91111=
30758 41599 82803 11034 21105 39384 40209 57012 72682 8692/=
30764 42599 83103 11027 21169 39403 40195 57006 84907=
30777 42999 82503 11043 21173 39545 40199 57011 82022=
30781 42599 60301 11017 21187 39716 40183 57008 83401=
30802 41698 83004 11023 21142 38726 48512 57014 71522 82901 333 91111 95050=
30822 42998 83006 11035 21078 39701 40286 57011 8807/ 333 91111=
30823 41599 82905 11027 21104 39625 40268 57009 70282 889// 333 91111=
30829 42599 83206 11012 21132 39584 40273 57009 8291/ 333 91010 91112=
30838 42/// /3003 11045 21130 39265 40254 56010 333 91110=
30844 41599 82804 11048 21123 39255 40239 57013 70282 86307 333 91111=
30846 41599 83005 11033 21131 39314 40224 57010 70182 86903 333 91011 91111=
30859 42599 83104 11026 21163 39373 40208 57010 85901 333 91110=
30862 42699 63102 11020 21169 39462 40195 57010 82262=
30879 42699 63403 11029 21199 39422 40183 57009 85401=
30925 42899 82903 11019 21172 39299 40271 57008 85075 333 91110=
30935 42699 82905 11036 21104 39315 40261 57010 82941=
30949 42699 62705 11030 21171 39129 40227 57011 82931=
30957 42699 83103 11026 21149 39325 40220 56013 889// 333 91110=
30961 42699 83205 11018 21183 39417 40200 56016 84105 333 91110=
30965 42599 72803 11014 21142 39369 40192 57010 85342=
30967 42599 73104 11018 21185 39439 40203 57011 84902 333 91110=
30971 42599 63504 11040 21191 39209 40190 57007 86200=
30975 42599 63106 11003 21211 39537 40176 57012 83331 333 91110=
30978 42599 43006 11005 21199 39509 40182 57011 84300=
31004 41599 70000 11141 21202 39360 40230 57003 70282 85901=
31005 41597 81601 11111 21164 39862 40232 57002 78582 85902=
31011 41599 20000 11114 21167 39867 40230 57001 72681 82900=
31016 42599 33001 11108 21136 39921 40223 54000 83900=
31026 42599 60602 11112 21196 39966 40225 57002 82962=
31041 12999 03001 11106 21190 39982 40218 57008 60002 333 11106=
31054 12999 00501 11109 21205 39936 40215 57006 60002 333 11095=
31062 12999 03202 11131 21239 39698 40193 54000 60002 333 11101=
31087 12999 20000 11080 21215 30143 40150 57001 60002 80001 333 11071=
31088 12999 42703 11104 21203 30135 40143 57005 60002 81031 333 11064=
31096 12999 80000 11108 21210 30059 40127 54000 60002 80007 333 11106=
31123 42599 629// 11103 21200 39883 40215 54000 83901=
31137 42599 70000 11135 21217 39126 40194 57004 85909=
31152 12999 03601 11124 21207 39773 40187 57002 60002 333 11092=
31168 12999 00000 11131 21178 30165 40173 57003 60002 333 11073=
31174 12999 00000 11114 21151 30166 40178 52003 60002 333 11083=
31253 42999 22301 11090 21232 39710 40175 57008 80002=
31285 12699 20701 11076 21215 30087 40168 57009 60002 82200 333 11040=
31295 42699 43206 11050 21146 39716 40175 57005 82530 333 91110=
31300 42599 30302 11048 21161 39879 40175 55002 81102=
31329 42999 00104 11097 21207 39462 40143 52002=
31348 12999 21602 11074 21220 39971 40169 55004 60002 81031 333 11047=
31369 12999 31003 11134 21224 30115 40176 57004 60002 80001 333 11107=
31371 42599 53403 11040 21177 39912 40179 56004 83901 333 91112=
31388 42999 03304 11048 21198 39881 40145 57005=
31416 12999 63402 11069 21203 30053 40148 56008 60002 82035 333 11042=
31418 12999 80101 11077 21209 39901 40160 57006 60002 80005 333 11051=
31439 12999 80302 11101 21240 30121 40166 57002 60002 80005 333 11067=
31442 42999 03404 11059 21201 39812 40168 57002=
31445 42999 03302 11044 21207 39904 40159 55000 333 91110=
31474 12599 30000 11040 21118 39619 40099 58005 83500=
31478 12698 81302 11102 21194 39011 40119 57002 60002 84901 333 11070=
31484 12999 80902 11082 21192 39805 40149 53003 60002 8807/ 333 11054=
31489 12999 83302 11074 21189 30018 40137 57012 60002 8801/ 333 11061=
31510 41999 13305 11036 21185 39945 40160 53003 73630 80001 333 91010 91113=
31513 42999 03504 11043 21182 39924 40151 53001 333 91112=
31521 41999 03603 11041 21181 39846 40138 55001 70231 333 91110=
31527 42998 23503 11046 21185 39829 40133 53004 80001 333 91110=
31532 12999 50101 11045 21139 39762 40103 56005 60002 81031 333 11012=
31534 12999 63104 11034 21190 39763 40109 53004 60002 80005 333 10003=
31538 11599 82301 11042 21082 39661 40097 55003 69962 70282 8297/ 333 11015=
31561 12998 80303 11057 21177 30095 40121 55007 60002 80015 333 11041 91111=
31583 42999 83505 11029 21176 39980 40126 53006 80007 333 91111=
31587 42997 83404 11036 21153 30000 40146 52003 80003 333 91111=
31594 42999 83306 11028 21177 39950 40121 53008 80007 333 91011 91111=
31624 12999 80000 11018 21146 39833 40081 55004 60002 81037 333 11004=
31632 12999 80703 11054 21190 39746 40102 55001 60002 8807/ 333 11033=
31655 12999 80503 11057 21113 30041 40062 57001 60002 80071 333 11043=
31683 12999 83602 11091 21170 30070 40146 57004 60002 8807/ 333 11057=
31702 11598 83302 11031 21067 39765 40096 52005 69942 72682 8591/ 333 11019=
31707 11598 83504 11016 21084 39999 40090 52002 69972 70272 8657/ 333 11016=
31713 12999 80604 11019 21166 39989 40090 55000 60002 8807/ 333 11005=
31725 12998 80504 11031 21203 30016 40079 55002 60002 8804/ 333 11021 91111=
31733 12999 80305 11057 21127 30004 40084 57009 60002 8802/ 333 11048 91111=
31735 12660 80508 11057 21144 39991 40080 57005 60002 8397/ 333 11040 83944 91012 91114=
31754 11599 80801 11079 21098 39570 40079 57008 60022 70282 889// 333 11053=
31770 11595 80504 11092 21121 30104 40132 57013 69932 78687 889// 333 11073=
31801 11596 80602 11045 21071 39816 40043 56008 60052 77172 8272/ 333 11025=
31825 11597 82801 11081 21092 39886 40101 57019 60052 78582 889// 333 11072=
31832 11596 83402 11049 21061 39957 40043 55001 60072 77172 8802/ 333 11038=
31845 11995 80304 11046 21071 39864 40027 56007 60072 77372 8802/ 333 11038=
31866 11494 80914 11054 21068 30065 40072 57023 60062 77372 8872/ 333 11051 91019 91119 92992=
31873 11596 83404 11052 21066 39896 40025 53006 60112 77173 8802/ 333 11020 91112=
31878 11596 83403 11034 21042 39890 40014 53008 60112 77172 8802/ 333 10009=
31909 11495 81103 11045 21057 39945 40023 58026 60052 77372 8872/ 333 11027 91111=
31913 86/// /3303 11056 21073 39936 40055 52017 333 11028 555 51030=
31915 11597 83302 11048 21074 39781 40055 52025 60062 77172 8872/ 333 11018=
31921 11394 83306 11049 21057 39949 40048 52020 60052 77173 8472/ 333 11019 91010 91117=
31959 11495 80702 11036 21050 39964 40006 56021 60072 77372 8672/ 333 11019=
31960 11/93 93511 11044 21050 39781 40017 53022 60052 77573 333 11016 91019 91121 92992=
31961 11996 80105 11041 21051 30003 40047 52025 60112 77173 8802/ 333 11010 91110=
31969 11997 82704 10004 20004 39971 40020 53021 60102 70272 8801/ 333 10006=
31981 11495 80000 11032 21045 39788 40021 53023 60092 77372 8872/ 333 10015=
31987 11497 83003 10014 21016 39731 49983 53011 60092 76162 8872/ 333 10027=
31989 11498 81102 11006 21013 39927 49979 53005 60072 77172 8872/ 333 10012=
32010 12998 23301 11151 21202 30129 40180 54001 60002 80001 333   11097 91001 91105 555   51200=
32027 12999 63204 11169 21203 30159 40168 57011 60002 82032 333 11121 91006 91106=
32053 12997 81102 11136 21180 30125 40178 56005 60002 80002 333 11104 91002 91105=
32061 12999 70203 11103 21151 30108 40149 57015 60002 80002 333 11080 91003 91107=
32069 12998 81102 11070 21126 30129 40135 56009 60002 80007 333 11057 91003 91108=
32076 12598 80000 11118 21166 30165 40176 56007 60002 8251/ 333 11103 91104=
32098 11597 81106 11095 21149 30156 40168 57005 69902 73683 84933 333 11082 91010 91110=
32099 12498 80707 11101 21139 30150 40159 55007 60002 889// 333 11101 91009 91109=
32121 11493 80705 11097 21129 30094 40118 57017 60012 78683 889// 333 11079 91011 91114=
32128 11597 70903 11093 21130 30022 40076 58026 60042 78582 87300 333   11067 91009 91109 555   51074=
32150 11594 83101 11097 21119 30069 40098 58019 60032 78682 889// 333 11072 91005 91107=
32165 12498 80707 11012 21020 30011 40069 56043 69902 889// 333 11012 91011 91113=
32213 11598 63217 11060 21118 30028 40092 53016 69902 73632 86500 333 11057 91020 91123=
32215 11596 70201 11063 21119 30085 40116 52015 60012 78582 87900 333 11046 91006 91113=
32287 11497 81505 11108 21132 30029 40040 53020 69992 78583 889// 333 11078 88917 92980=
32333 11294 81111 11007 21013 30026 40037 52022 60042 78683 889// 333 11002 91015 91118 92983=
32389 11496 72804 11087 21125 30000 40037 51028 60032 77173 86070 333 11083 86517 92980=
32408 42598 63401 11100 21112 39980 40010 52025 60052 86500 333 11064=
32411 11497 83007 11098 21123 30080 40087 52013 60032 73683 886// 333 11086 91113 92980=
32477 11597 63601 11125 21144 30064 40097 52018 69942 70282 83570 333 11073=
32509 11598 83211 11067 21165 39956 49991 52024 60002 73632 885// 333 11055 91018 91123=
32562 11597 73302 11106 21115 30054 40093 52020 60022 78582 87900 333 11090=
32583 11699 23014 11068 21160 39992 40023 52026 60002 73630 82500 333 11055 91018 91119=
32594 11596 73210 11067 21113 30067 40104 51015 69992 73883 87300 333 11064 91013 91117=
32596 11998 03306 11083 21154 30036 40063 53029 60002 73730 333 11068 91010 91120 555 51088 53023 91225=
32618 11598 71205 11024 21053 39986 40009 53023 69972 70283 87500 333 11000 91111=
33008 42580 72703 10097 20034 30123 40302 52003 87500 333 87630=
33019 42560 73204 10081 20027 30108 40283 52003 875// 333 91110=
33027 42597 73103 10067 20009 30105 40273 53007 875//=
33036 42570 72801 10066 20013 30033 40267 52008 86550 333 86631=
33038 42597 83004 10051 20005 30088 40265 53009 885//=
33041 42579 73105 10056 21002 30091 40249 53004 87500 333 87632 91010 91111=
33088 41597 82904 10077 20015 30096 40289 54000 70282 885// 555 1/010=
33124 42580 62904 10060 20018 30118 40263 53006 86500 333 86629=
33135 41597 63003 10052 20008 30108 40258 53002 70272 85130 333 85825 555 1/008=
33177 42598 82605 10060 20012 30073 40314 52001 885// 555 1/007=
33228 42697 72704 10058 20007 40276 53003 86550 555 1/009=
33261 41997 82703 10032 21013 30061 40247 57011 70262 8807/ 555 1/005=
33268 42598 82302 10028 21008 40252 57009 8237/ 555 1/003=
33275 41497 82905 10038 21005 30021 40248 57008 78382 8535/ 555 1/008=
33287 42668 82806 10052 21013 40328 58001 885// 555 1/007=
33301 42597 82707 10049 20024 30017 40304 54000 8655/ 333 86629 555 1/008=
33317 42497 82905 10054 20011 39958 40300 57003 885// 333 88619 555 1/008=
33325 41597 83002 10052 20003 30016 40288 53002 78082 8692/ 333 86921 555 1/007=
33345 42598 83305 10053 21012 30064 40272 56010 885// 333 88623 555 11005=
33377 42597 72302 10067 21003 30064 40259 57013 82530 555 1/009=
33393 42660 82904 10060 21009 39935 40333 58004 885// 333 88643 555 1/007=
33398 42998 62705 10087 21036 40342 52003 80005 555 1/012=
33409 42998 72505 10065 21041 40326 58006 87050 555 1/012=
33415 42697 72606 10072 21002 39915 40317 57006 83530 555 1/011=
33429 42997 72708 10079 21022 39881 40306 57008 85031 555 1/015=
33464 42697 72807 10074 20003 40280 57008 86370 555 1/010=
33466 42698 82705 10073 20007 30087 40276 57014 8255/ 555 11010=
33497 /3105 10331 20086 39127 48523 7//// 333 58007 81/15=
33506 42597 72803 10065 21026 30062 40260 58006 82530 555 1/011=
33526 42984 62904 10088 21039 39992 40335 58005 80001 555 1/017=
33536 42997 63003 10073 21047 40328 58005 82035 555 1/015=
33548 42999 62904 10076 21017 40329 58010 84031 555 1/014=
33557 42982 72902 10072 21006 40316 58008 83031 555 1/010=
33562 42563 72606 10074 21019 39932 40296 57011 82531 555 1/010=
33577 42997 82605 10083 21025 40301 58006 80001 555 1/014=
33587 42998 82902 10088 21027 30030 40295 57008 80001 555 1/018=
33614 42997 82903 10058 21006 30169 40276 58007 83051 555 1/015=
33631 42997 72803 10082 21027 30207 40354 52001 80001 555 1/016=
33651 42999 72703 10079 21017 40336 58002 82042 555 1/009=
33658 42981 83305 10069 21017 30033 40337 57001 80005 555 1/013=
33663 42998 63002 10090 21007 30228 40325 58003 80001 555 1/015=
33664 42998 82904 10072 21019 30014 40338 53004 85032=
33678 42998 72906 10095 21028 30112 40325 58002 80001=
33679 42997 82703 10094 20000 30133 40325 58007 80007=
33711 42698 83108 10096 21047 30072 40282 58011 82101 555 1/019=
33744 42598 73004 10101 21025 30130 40331 58006 81106=
33745 42597 72705 10098 21046 30147 40342 58008 83505=
33748 41996 73003 10093 20017 30040 40326 58007 71011 80005=
33749 42698 53004 10111 21058 30225 40323 58010 83201=
33754 42698 73003 10103 21022 30172 40319 58005 81101=
33761 42698 83005 10096 21040 30078 40302 57011 81104 555 1/022=
33791 42997 83207 10106 21042 30127 40278 57008 80001 555 1/022=
33815 42698 53206 10099 21064 30110 40319 58005 81131=
33821 42997 43205 10100 21038 30270 40322 57005 82032=
33829 42597 13104 10108 21044 30274 40325 58006 81100=
33837 42580 23603 10111 21030 30264 40316 58003 82400 555 1/027=
33881 42998 23303 10106 21054 30134 40331 58004 80002=
33883 42598 23204 10106 21054 30158 40325 58005 82100=
33885 42698 23002 10105 21025 30187 40329 52001 82100=
33886 42798 23404 10106 21052 30235 40315 58007 82100=
33889 42998 03604 10112 21012 30293 40330 54000 555 1/026=
33892 42998 13204 10101 21071 30109 40322 58012 81030=
33902 42597 23505 10096 21036 30231 40298 58006 82100 555 1/020=
33915 42998 03004 10108 21067 30247 40284 58003 555 1/027=
33924 42998 03505 10080 20026 30292 40305 52008=
33946 42460 70704 10073 20044 30067 40290 52004 87500 333 87627=
33983 41596 83006 10073 20060 30203 40264 52012 71011 8355/ 333 91110=
33998 42497 73002 10030 21006 38900 51003 87200=
34003 42598 82603 10015 21032 39919 40230 57005 886//=
34009 42597 82802 10029 21016 39926 40234 57006 8257/=
34013 42598 73004 10036 21027 30001 40225 57008 86530=
34047 41396 82802 10014 20003 30042 40227 57003 71011 886// 333 88709=
34056 41997 83302 10019 20017 39945 40210 57004 70272 8807/=
34072 41396 82901 10011 21003 39829 40202 57007 71022 886// 333 88707=
34083 42597 81201 11003 21015 30093 40176 57004 885// 333 88626=
34098 42597 63302 10015 21014 30163 40209 57006 86500 333   86626=
34098 42597 63302 10015 21014 30163 40209 57006 86500 333 86626=
34109 42599 82602 10029 21003 39999 40237 56009 883//=
34110 42898 82503 10058 21029 39951 40229 57014 86031=
34123 41697 72602 10050 21009 30039 40224 57010 70342 86530=
34139 41560 72504 10028 20007 39991 40233 57005 70242 87500=
34146 41697 53202 10055 20009 30094 40226 58006 70272 85100=
34152 41498 83303 10020 20011 30021 40218 54001 70272 886// 333 88712=
34163 41/93 92702 10012 20004 39958 40212 57006 74744=
34171 41340 81702 10024 20005 30010 40204 57008 71022 886// 333 88706=
34178 42497 80000 10032 20008 30043 40204 57008 885// 333 88612=
34186 41/93 92303 11017 21022 30075 40216 57004 74542 333 93599=
34199 42999 03402 10022 21013 30085 40215 57007=
34199 42999 03402 10022 21013 30085 40215 57007=
34202 41597 83208 10033 21011 39966 40247 57006 78522 889// 333 91011 91111=
34231 42598 62801 10071 20020 30086 40228 57009 83501=
34238 41494 82603 10020 20015 30037 40232 57004 71042 8671/=
34240 41498 83104 10020 20001 30095 40229 54001 70282 8697/=
34247 42598 83302 10036 20007 30111 40226 57002 885// 333 88695=
34253 41498 80000 10011 20009 30051 40219 57003 70284 889//=
34254 41598 83602 10022 20014 30102 40225 54001 70244 884//=
34262 42597 83202 10015 21013 30072 40219 55005 8257/=
34267 42598 83003 10031 21001 30090 40218 55005 885//=
34273 41/93 92101 10004 21005 30155 40217 56008 74544=
34273 41/93 92101 10004 21005 30155 40217 56008 74544=
34300 42660 72906 10067 21046 30055 40246 58011 83530 555 1/010=
34312 42597 72706 10074 21024 40242 57011 86230 555 1/015=
34321 41698 52804 10071 21017 30099 40238 57013 70242 82102=
34336 41497 60202 10044 20011 30130 40234 57002 70282 86300=
34344 41496 83102 10028 20028 30145 40234 54000 76164 8872/=
34356 42997 62803 10113 21006 30063 40208 57013 85076=
34357 42598 83103 10093 20020 30054 40207 57008 8235/=
34363 42997 62502 10079 20006 30063 40214 57008 86070=
34373 42997 01702 10054 21023 30173 40217 57013=
34373 42997 01702 10054 21023 30173 40217 57013=
34391 42997 12702 10009 21010 30191 40223 57007 80002=
34398 42998 03402 10062 21032 30209 40219 57006=
34415 42670 63403 10083 21045 30153 40250 58011 85201 555 1/020=
34438 41496 83203 10028 20022 30046 40240 52001 78084 883//=
34445 42598 82903 10054 20024 30111 40225 56004 8697/=
34461 42597 22803 10129 21024 30156 40210 57015 82500=
34476 42998 02602 10096 20015 30213 40220 57012=
34476 42998 02602 10096 20015 30213 40220 57012=
34504 42797 42908 10104 21041 30082 40260 82104 555 1/025=
34535 42998 83302 10052 20021 30167 40239 54001 8805/=
34545 42598 42504 10128 21005 30108 40217 57012 81101=
34555 42998 02303 10114 21024 30141 40231 57008=
34560 42997 02605 10108 20003 30031 40218 57009=
34578 42997 02202 10113 21001 30220 40226 57010=
34579 42998 03001 10104 21017 30183 40226 57009=
34601 42960 02908 10094 21029 30133 40269 57008 555 1/023=
34644 42997 02302 10119 20009 30150 40225 57010=
34646 42698 12403 10119 20008 30145 40225 57011 81100=
34655 42997 03402 10135 21086 30127 40185 57037=
34662 42998 01702 10130 21005 30215 40226 57011=
34687 42998 10101 10110 21051 30250 40231 57008 80001=
34691 42998 00000 10086 21064 30228 40216 58008=
34712 42597 73605 10091 20045 30162 40248 53003 82535 555 1/014=
34720 42697 72501 10077 20005 30199 40239 57002 87500=
34727 41496 83403 10067 20045 30219 40249 52003 71011 8648/=
34740 42598 20801 10118 20022 30130 40225 57010 82400=
34743 42997 02402 10124 21002 30139 40226 57009=
34759 42998 01701 10126 20000 30099 40228 58010=
34772 42998 03501 10109 21026 30230 40234 58007=
34785 42998 03302 10109 21034 30251 40229 57007=
34785 42998 03302 10109 21034 30251 40229 57007=
34798 42998 00205 10111 21090 30253 40224 57005=
34824 42997 63103 10093 20044 30241 40246 52002 86030=
34838 42597 12702 10134 20024 30136 40230 57004 81100=
34845 82998 01601 10129 20032 30126 40231 58002=
34858 42997 21202 10123 20018 30121 40227 57009 80001=
34861 42998 01602 10111 21012 39988 40225 57008=
34866 82998 03101 10122 21026 30239 40230 57009=
34868 42998 01102 10123 20003 30092 40229 57007=
34880 42997 03302 10121 21045 30251 40225 57007=
34887 42998 00102 10134 21043 30250 40231 57007=
34887 42998 00102 10134 21043 30250 40231 57007=
34894 42998 00901 10111 21016 30249 40221 57003=
34920 82597 42305 10125 20030 30203 40245 52001 83430=
34949 42598 23406 10110 20022 39680 40217 55003 82500=
34954 42598 31602 10129 20022 30051 40221 57011 82501=
34958 42998 01302 10121 20018 30029 40224 57009=
34975 42998 00902 10134 21003 30231 40227 57007=
34984 42998 03102 10141 21018 30255 40228 58008=
35001 42999 01701 10013 21053 30128 40212 57006=
35001 42999 01701 10013 21053 30128 40212 57006=
35007 42998 02101 10019 21028 30123 40215 57007=
35007 42998 02101 10019 21028 30123 40215 57007=
35008 42998 01702 10012 21053 30126 40214 57006=
35011 42999 01501 10039 21058 30056 40212 57009=
35026 42998 02801 10090 21090 39562 40180 57009=
35037 42999 01802 10028 21074 39779 40199 57008=
35038 42982 02002 10022 21047 39880 40207 57007=
35067 42998 21603 10005 21049 39934 40216 57005 82030=
35078 42998 01602 11004 21060 39852 40232 57009=
35085 42998 01504 11001 21050 39769 40246 57008=
35092 46/// /3204 10013 2//// 3//// 4//// 5////=
35108 42997 30000 10042 21081 30169 40213 57008 83070=
35120 42998 80000 10047 21025 30063 40213 58006 8802/=
35121 42998 81701 10022 21032 30064 40211 57005 8807/=
35126 42999 02801 10051 21045 39936 40203 57009=
35127 42598 20302 10047 21047 30029 40209 57008 82500=
35127 42598 20302 10047 21047 30029 40209 57008 82500=
35138 42997 00402 10040 21040 39851 40202 57009=
35138 42997 00402 10040 21040 39851 40202 57009=
35167 46/// /1103 10008 21398 39916 40220 57008=
35173 42996 01604 10000 21046 39862 40245 57004=
35188 42997 32002 10034 21063 39820 40250 57009 80001=
35217 42998 60000 10041 20018 30173 40212 57001 86030=
35229 42999 01801 10064 21050 39969 40205 58009=
35233 42998 01402 10018 21057 39860 40207 57008=
35235 46970 00402 10031 21022 39855 40188 57008=
35302 42998 23202 10057 21039 30194 40213 57006 82030=
35334 46970 00802 10018 21047 39752 40205 57006=
35344 42999 00202 11016 21064 39918 40208 56008=
35345 42998 03601 10043 21032 39885 57005=
35357 42997 21404 10008 21042 39800 40235 58006 80001=
35358 42997 00901 10048 20009 30031 40196 57007=
35361 42998 51102 10044 21001 30033 40209 57006 85030=
35363 42997 01003 10052 21041 39780 40217 58006=
35368 42999 01404 10051 21018 39956 40217 58005=
35394 42998 61303 10028 21050 39581 40253 58006 80008=
35406 42997 70000 10087 21056 30206 40208 58004 87030=
35416 42997 00802 10096 21047 30075 40192 57009=
35426 42999 00801 10083 21013 39910 40193 57006=
35497 42998 61403 10022 21036 39459 40251 58007 80002=
35506 42999 23403 10093 21030 30189 40204 58005 82031=
35514 42998 03602 10123 21078 30199 40195 57007=
35519 42998 03602 10101 21067=
35522 42998 00000 10082 21008 39945 40190 57006=
35532 42998 02503 10088 20009 39707 40183 58007=
35542 42999 21401 10088 20006 30046 40189 58008 80001=
35576 42998 50802 10023 21047 39796 40241 58007 80001=
35615 46/64 /3302 10132 20114 30217 40191 57007=
35633 42998 00403 10087 21037 39982 40189 58011=
35656 42998 31407 10127 20030 80001=
35662 46/62 /0904 10008 21024 39633 40232 57006=
35671 42998 50903 10014 21024 39805 40233 58006 80001=
35699 42998 70505 11002 21056 39507 40268 57003 80001=
35700 42998 03103 10107 20002 30234 40211 54000=
35701 46967 03404 10101 21029 30242 40208 57006=
35715 42999 02303 10139 21002 30203 40189 58006=
35739 42999 13601 10111 21054 30051 40190 58015 80002=
35746 42998 30102 10134 20009 30118 40182 58008 80001=
35777 42997 51103 10124 20019 39873 40203 57013 80004=
35793 46/69 /0403 10001 21049 39554 40269 57009=
35796 42998 80504 10045 21028 39823 40252 58009 80006=
35816 42999 02305 10140 20006 30199 58004=
35836 42998 00401 10121 20036 30115 40192 58006=
35849 42998 50901 10170 20056 30093 40173 58009 85030=
35895 42998 60803 10002 21060 39816 40261 57008 80002=
35907 42998 02902 10064 20036 30254 40223 54000=
35925 42998 12902 10145 21022 30083 40190 58007 80001=
35927 42998 02701 10151 20011 30191 58006=
35953 42699 51403 10173 20011 30071 40192 58009 82280=
35969 42999 62001 10156 20021 30040 40205 58008 82049=
36003 42998 01303 10017 21062 30151 40303 57015=
36020 42998 00704 10002 21064 30085 40286 57009=
36021 42999 00904 11005 21063 30119 40301 57016=
36022 42998 02703 10010 21050 30034 40297 57013=
36026 46/62 /3002 11003 2//// 3//// 4//// 5////=
36034 42998 03603 11020 21075 30033 40312 57008=
36038 42998 83201 10012 21079 39861 40304 57004 80007=
36052 42960 00503 10031 21065 39933 40296 56010=
36055 42999 03303 10050 21074 39885 40284 56011=
36057 42999 03102 10095 21112 39243 40248 57009=
36058 42999 02301 10128 21148 39754 40251 56023=
36061 42999 00000 10099 21105 39885 40280 57019=
36064 42999 01601 10051 21113 39694 40281 56021=
36078 42999 01102 10018 21090 39129 40299 57014=
36090 46/// /0902 10038 21099 39104 48557 56011=
36091 42999 01301 10042 21098 39494 40294 57027=
36092 42999 01901 10019 21121 39270 40307 57014=
36096 42699 22201 10043 21107 39545 40311 57018 82500 333 95000=
36103 42699 23401 10014 21102 39206 40307 57016 82500 333 95000=
36104 42999 03602 11016 21115 39463 40322 57014=
36152 42998 00602 11005 21073 30105 40293 57017=
36177 42997 01103 11010 21080 30056 40305 57011=
36197 46956 03402 11003 21063 39963 40304 57600=
36208 42999 02102 10076 21065 39320 40273 58001=
36229 42999 01002 10016 21118 39128 40292 57012=
36259 42999 02102 11020 21137 38284 48555 57007=
36278 42999 02704 10008 21193 38203 48563 57006=
36307 42999 00102 11047 21118 39030 48585 57004=
36341 429// 01303 10005 21073 39334 40273 5////=
36358 42999 00000 11012 21127 39260 40282 57006=
36397 42999 01802 10039 21051 39725 40280 57011=
36428 42999 02801 11008 21080 39804 40307 58005 333 95000=
36535 42999 00000 11005 21081 39688 40323 52008=
36639 42999 00000 10058 21020 39653 40244 58003=
36785 46969 03501 10098 21031 3//// 4//// 5////=
36821 42999 63604 10116 21036 39743 40213 57011 80002=
36856 46/// /1703 10119 2//// 3//// 48/// 5////=
36859 42999 02201 10167 21023 39441 40176 57011=
36864 42999 21403 10154 21017 39328 40175 57012 80001=
36870 41996 20201 10158 21007 39213 40171 58006 70400 80001=
36871 46/// /0602 10150 21038 39246 40167 5////=
36883 46/61 /3301 10153 21057 39477 40185 57010=
36911 42998 62903 10171 20011 39242 40162 58006 80004=
36974 41696 82701 10034 21001 37973 48516 58005 70282 889//=
36982 42598 53005 11032 21118 36513 47060 58006 82401=
37001 42597 72405 10099 20067 30221 40259 52007 86509=
37018 82698 81503 10094 20045 30189 40265 52008 86531=
37021 42598 82604 10098 20035 39981 40247 52004 8657/=
37031 42597 22804 10123 20041 30038 40230 54001 82100=
37036 42698 32904 10121 20028 39812 40220 57004 83200=
37054 42998 02702 10147 20033 39840 40214 57012=
37058 42998 23201 10140 20028 39860 40210 57012 80001=
37061 42997 01402 10123 20020 30061 40224 57011=
37085 42998 03501 10138 20008 30254 40227 57010=
37107 42570 82603 10062 20023 39578 40258 52003 885// 333 88626 95060=
37126 42398 83405 10001 21023 37950 48517 52003 86431=
37144 42998 00501 10127 20027 39980 40221 57011=
37163 42597 50402 10131 20017 30233 40228 58008 85530=
37171 42597 81003 10097 20053 30252 40271 52007 885// 333 88629=
37193 42798 23603 10098 21038 38691 48513 57015 82400=
37212 42998 03602 10116 20028 39710 40215 52006=
37218 82998 10201 10106 20016 39431 40208 58005 81030=
37228 82698 23003 10112 20009 39386 40206 57004 82500=
37235 42998 21502 10118 20040 39908 40217 58008 8004/=
37244 82598 33401 10118 20035 30133 40225 57010 8320/=
37463 82999 02401 10084 21048 38587 48485 57007=
37470 42598 63602 10106 20050 30255 40233 57004 84530=
37472 42598 21102 10104 20026 30253 40231 57006 822//=
37496 46/// /1905 10085 20069 30273 40278 52011 69927=
37663 41598 80903 10051 20044 39031 48490 57008 70142 885//=
38001 42997 23603 10091 20032 30254 40225 52001 80002=
38002 42697 43002 10142 20068 30206 40179 58006 84200=
38008 42699 32002 10128 20023 39924 40214 58003 83200=
38023 42998 59901 10138 21027 30042 40195 58002 80001=
38045 42598 31604 10197 20058 30095 40167 58008 83202=
38049 42697 52002 10170 20056 30086 40190 58003 85100=
38051 42999 01402 10178 20078 30070 58005=
38062 42799 72302 10191 20055 30031 40184 58008 82181=
38069 42998 61402 10180 20041 30016 40197 58007 86030=
38081 42998 32902 10174 20021 39966 40190 57008 82061=
38091 42999 00803 10128 21007 39889 40207 58014=
38111 42997 62804 10090 20053 30238 40210 58003 86030=
38141 42998 73602 10123 21007 30031 40186 58002 87030=
38146 42697 23402 10173 20013 30106 40173 58006 82230=
38149 42598 72003 10165 20032 30094 40168 58009 87200=
38178 42698 71803 10154 20040 39902 40178 58003 87300=
38196 42598 61702 10135 20081 39250 40185 58002 86900=
38198 42597 82804 10172 20060 39961 40203 58004 85972=
38203 42999 70000 10134 20015 39757 40199 58009 87040=
38222 42998 23103 10175 21005 39655 40183 58008 82060=
38232 42698 72902 10147 20032 30093 40190 58005 87500=
38262 42598 71902 10164 20048 30099 40178 58005 87200=
38264 42698 71904 10126 20065 30093 40184 52003 875//=
38313 36/63 /2903 10132 2//// 3//// 4//// 5////=
38318 46764 /2401 10138 2//// 3//// 4//// 5////=
38328 42598 82701 10129 20061 39505 40207 58002 889//=
38334 42597 83102 10117 20078 39277 40205 58003 889//=
38341 42699 63303 10153 20051 39439 40188 58004 85440=
38343 42698 53402 10157 20038 39376 40177 58006 85500=
38345 42698 82403 10142 20062 38809 48507 58007 85536=
38353 42997 52801 10160 20034 39322 40181 58005 70400 80001=
38388 42598 62304 10120 20023 30122 40192 58001 86500=
38392 42597 72306 10138 20089 30085 40185 58003 85530 333 85628=
38396 42496 72306 10117 20064 30078 40201 54000 875// 333 87619=
38403 42697 82702 10146 21019 30058 40175 52004 882//=
38413 42998 81803 10133 21019 39937 40221 54000 8807/=
38439 42598 60802 10138 20089 39888 40212 58006 84903=
38457 41497 81901 10121 20089 39636 40211 57004 72586 883//=
38462 41699 70000 10086 20053 38776 48524 58003 70288 86950=
38507 42498 82404 10084 20053 30127 40230 52001 885// 333 88615=
38511 41597 82705 10087 20061 30083 40224 52004 780// 889//=
38545 42598 72003 10126 20062 30037 40209 58002 87300=
38565 31597 80000 10128 20058 3//// 4//// 5//// 72582 8697/=
38579 32598 70601 10157 20089 39791 40196 58010 87900=
38583 41597 60202 10149 20110 39902 40215 58007 70188 84941=
38598 42698 50902 10172 20086 40195 57011 85500=
38599 42798 53001 10177 20060 39695 40189 57011 83930 333 83950=
38611 42697 73503 10163 20076 39650 40201 57014 87300 333 83879=
38613 42998 72701 10152 20078 40184 58011 80001=
38616 42598 73601 10137 20056 39206 40191 58012 87500=
38618 42697 62101 10165 20061 39514 40177 57009 83581=
38647 42599 82803 10102 20046 30176 40218 57004 885//=
38656 42698 82702 10124 20045 30113 40220 58007 885//=
38683 42597 62004 10145 20051 39942 40211 58005 86500 333 86632=
38687 42797 73203 10136 20053 39989 40220 58006 87500=
38696 41598 73202 10130 20061 39363 40198 58005 72521 87900=
38705 42699 53203 10143 20097 39007 48510 52035 83530=
38713 42598 73604 10113 20058 39060 48540 53005 86930=
38715 41/92 90906 11046 21046 47080 51002 74542=
38718 42599 51807 10056 21025 48500 58007 82904=
38719 42599 81804 11061 21110 47160 58004 889//=
38725 42699 60000 10092 21112 48510 52004 85902=
38734 42599 60902 10030 21127 47100 51001 84903=
38744 42699 41801 10072 21041 38022 48520 58009 84900=
38750 42597 62502 10123 20051 30270 40242 54000 86500=
38763 42599 72604 10112 20058 30120 40224 58003 87900 333 87930=
38774 42598 83504 10118 20070 30031 40225 58010 8397/=
38794 42596 83203 10118 20068 30010 40222 58005 885//=
38799 42597 72902 10136 20061 30000 40227 54000 87200=
38806 42997 32702 10162 20068 39961 40215 58008 80002=
38812 42997 52602 10144 20070 39766 40207 52002 85030=
38836 42699 40000 10179 20067 39261 40159 57017 82581=
38838 42699 82503 10175 20056 39531 40176 57013 82202=
38844 42699 60000 10050 21022 48480 51003 82102=
38846 42699 51803 10113 20041 38524 48490 57015 85900=
38847 42799 71602 10185 20059 40179 58015 81202=
38851 42899 31402 10134 21014 48530 58012 82531=
38852 42698 22701 10102 20011 38493 48510 58012 82500=
38856 42698 30000 10168 21036 48520 57023 83300=
38869 42699 52301 11008 21114 47080 58009 83202=
38875 42598 30902 11060 21134 47/// 5//// 82302=
38878 42699 62304 10012 21123 47050 58004 84203=
38880 41296 80901 10090 20077 39966 40221 58006 760// 8802/ 333 88506=
38886 42597 80601 10120 20074 39996 40222 58006 889//=
38895 41596 80401 10126 20073 39937 40222 58008 702// 885//=
38911 42998 60302 10152 20021 39925 40212 58013 83082=
38915 42597 60000 10175 20067 39892 40205 57009 84201=
38927 32660 72402 10180 20062 39824 40187 58017 87950 333 85833=
38932 42699 61401 10167 20036 40173 58027 82201=
38933 42698 43601 10192 20045 39689 40182 58015 81104=
38944 42998 63401 10182 20084 39605 40119 58011 84031=
38947 42598 62901 10186 20084 40187 58021 82201=
38950 42799 29002 10053 21060 47120 58006 82100=
38951 42997 30902 10114 21022 48510 58015 80002=
38954 42899 20000 10104 21027 37923 48490 57011 82100=
38957 42698 50000 10086 21064 47940 58018 82203=
38974 42598 80901 10134 20073 39877 40205 58010 86200 333 86830=
38987 42596 80402 10099 20067 39466 40203 58014 885//=30028 42599 32903 11043 21107 39811 40258 52008 83900


SMUS30 KWBC 210900
AAXX 21094
37279 46/// /2604 10113 20031 30124 40323 52004 60007=
37308 46/// /2905 10066 20014 39606 4//// 52006 60007 333 91004 91105=
37395 42698 82702 10090 20048 30135 40276 52007 8552/=
37409 42497 82704 10008 21006 38808 48528 52012 885// 333 95080=
37514 42999 11801 10108 20000 39073 40208 58015 81040=
37545 42599 33612 10123 20009 39708 40214 57007 83100=
37575 42596 81602 10080 20041 39685 40274 52011 885//=
37621 42699 41101 10118 20023 39578 40209 58008 82230=
37661 41/93 91801 10056 20049 39468 40233 54000 74544=
37675 42597 60000 10081 20023 39569 40226 57007 86200=
37682 32997 23502 10030 21005 38133 48521 54000 80004=
37717 32599 21101 10045 21056 38084 48499 52003 81501=
37735 42698 60701 10101 20053 39853 40228 58007 82200=
37740 41/92 92702 10047 20042 39431 40246 52006 74544=
37747 42598 81503 10089 20061 30220 40238 58003 885//=
37749 41598 83200 10098 20065 30131 40248 57003 70252 885//=
37756 42598 82702 10044 20024 39336 40235 57001 885//=
37759 41/92 92403 10025 20025 39250 40256 52002 74544=
37788 42699 12001 10132 20002 39200 40174 57010 81500=
37844 42598 72202 10104 20048 30234 40239 57003 85530=
37851 42598 83002 10096 20025 30184 40254 54000 882//=
37864 42597 82706 10095 20048 40226 52002 885//=
37925 41598 80203 10100 20060 30268 40239 57004 70262 8872/=
37936 42698 31502 10112 20002 39185 40202 58002 82130=
37985 41596 81401 10082 20064 30258 40243 57001 71566 885//=
37989 41497 81102 10090 20076 30266 40239 52003 76166 8872/=